sensor_id;sensor_type;location;lat;lon;timestamp;pressure;altitude;pressure_sealevel;temperature;humidity
8051;BME280;4068;42.158;24.732;2022-11-06T00:00:34;99339.31;;;9.87;100.00
8051;BME280;4068;42.158;24.732;2022-11-06T00:03:00;99345.41;;;9.98;100.00
8051;BME280;4068;42.158;24.732;2022-11-06T00:05:27;99343.97;;;9.94;100.00
8051;BME280;4068;42.158;24.732;2022-11-06T00:08:11;99350.34;;;9.92;100.00
8051;BME280;4068;42.158;24.732;2022-11-06T00:10:36;99352.19;;;9.91;100.00
8051;BME280;4068;42.158;24.732;2022-11-06T00:13:02;99345.81;;;9.82;100.00
8051;BME280;4068;42.158;24.732;2022-11-06T00:15:27;99347.72;;;9.80;100.00
8051;BME280;4068;42.158;24.732;2022-11-06T00:17:53;99342.94;;;9.74;100.00
8051;BME280;4068;42.158;24.732;2022-11-06T00:20:18;99338.97;;;9.80;100.00
8051;BME280;4068;42.158;24.732;2022-11-06T00:22:44;99327.44;;;9.70;100.00
8051;BME280;4068;42.158;24.732;2022-11-06T00:25:10;99336.56;;;9.77;100.00
8051;BME280;4068;42.158;24.732;2022-11-06T00:27:36;99337.25;;;9.79;100.00
8051;BME280;4068;42.158;24.732;2022-11-06T00:30:04;99307.97;;;9.59;100.00
8051;BME280;4068;42.158;24.732;2022-11-06T00:32:30;99344.38;;;9.78;100.00
8051;BME280;4068;42.158;24.732;2022-11-06T00:34:55;99342.69;;;9.77;100.00
8051;BME280;4068;42.158;24.732;2022-11-06T00:37:21;99334.41;;;9.82;100.00
8051;BME280;4068;42.158;24.732;2022-11-06T00:39:46;99333.53;;;9.81;100.00
8051;BME280;4068;42.158;24.732;2022-11-06T00:42:12;99333.53;;;9.81;100.00
8051;BME280;4068;42.158;24.732;2022-11-06T00:44:37;99333.66;;;9.80;100.00
8051;BME280;4068;42.158;24.732;2022-11-06T00:47:02;99341.84;;;9.77;100.00
8051;BME280;4068;42.158;24.732;2022-11-06T00:49:28;99345.22;;;9.79;100.00
8051;BME280;4068;42.158;24.732;2022-11-06T00:51:53;99349.31;;;9.72;100.00
8051;BME280;4068;42.158;24.732;2022-11-06T00:54:19;99355.75;;;9.58;100.00
8051;BME280;4068;42.158;24.732;2022-11-06T00:56:44;99336.47;;;9.44;100.00
8051;BME280;4068;42.158;24.732;2022-11-06T00:59:11;99342.72;;;9.43;100.00
8051;BME280;4068;42.158;24.732;2022-11-06T01:01:39;99346.94;;;9.46;100.00
8051;BME280;4068;42.158;24.732;2022-11-06T01:04:17;99337.81;;;9.39;100.00
8051;BME280;4068;42.158;24.732;2022-11-06T01:06:46;99318.81;;;9.22;100.00
8051;BME280;4068;42.158;24.732;2022-11-06T01:09:14;99348.06;;;9.32;100.00
8051;BME280;4068;42.158;24.732;2022-11-06T01:11:51;99345.75;;;9.27;100.00
8051;BME280;4068;42.158;24.732;2022-11-06T01:14:18;99356.94;;;9.20;100.00
8051;BME280;4068;42.158;24.732;2022-11-06T01:16:44;99342.25;;;9.15;100.00
8051;BME280;4068;42.158;24.732;2022-11-06T01:19:14;99353.44;;;9.19;100.00
8051;BME280;4068;42.158;24.732;2022-11-06T01:21:41;99350.69;;;9.09;100.00
8051;BME280;4068;42.158;24.732;2022-11-06T01:24:11;99344.78;;;9.06;100.00
8051;BME280;4068;42.158;24.732;2022-11-06T01:26:37;99355.47;;;9.04;100.00
8051;BME280;4068;42.158;24.732;2022-11-06T01:29:04;99317.94;;;8.88;100.00
8051;BME280;4068;42.158;24.732;2022-11-06T01:31:31;99362.69;;;9.13;100.00
8051;BME280;4068;42.158;24.732;2022-11-06T01:33:58;99353.78;;;9.14;100.00
8051;BME280;4068;42.158;24.732;2022-11-06T01:36:25;99355.97;;;9.09;100.00
8051;BME280;4068;42.158;24.732;2022-11-06T01:38:52;99347.41;;;9.06;100.00
8051;BME280;4068;42.158;24.732;2022-11-06T01:41:24;99351.00;;;8.93;100.00
8051;BME280;4068;42.158;24.732;2022-11-06T01:43:58;99343.78;;;8.84;100.00
8051;BME280;4068;42.158;24.732;2022-11-06T01:46:27;99349.56;;;8.89;100.00
8051;BME280;4068;42.158;24.732;2022-11-06T01:49:22;99340.91;;;8.87;100.00
8051;BME280;4068;42.158;24.732;2022-11-06T01:51:58;99344.72;;;8.83;100.00
8051;BME280;4068;42.158;24.732;2022-11-06T01:54:26;99340.63;;;8.79;100.00
8051;BME280;4068;42.158;24.732;2022-11-06T01:56:55;99354.72;;;8.79;100.00
8051;BME280;4068;42.158;24.732;2022-11-06T01:59:26;99360.72;;;8.81;100.00
8051;BME280;4068;42.158;24.732;2022-11-06T02:01:52;99355.91;;;8.75;100.00
8051;BME280;4068;42.158;24.732;2022-11-06T02:04:26;99357.09;;;8.71;100.00
8051;BME280;4068;42.158;24.732;2022-11-06T02:06:53;99353.50;;;8.72;100.00
8051;BME280;4068;42.158;24.732;2022-11-06T02:09:20;99355.41;;;8.70;100.00
8051;BME280;4068;42.158;24.732;2022-11-06T02:11:54;99348.53;;;8.68;100.00
8051;BME280;4068;42.158;24.732;2022-11-06T02:17:13;99338.91;;;8.55;100.00
8051;BME280;4068;42.158;24.732;2022-11-06T02:27:57;99334.50;;;8.43;100.00
8051;BME280;4068;42.158;24.732;2022-11-06T02:30:29;99357.28;;;8.57;100.00
8051;BME280;4068;42.158;24.732;2022-11-06T02:33:21;99349.94;;;8.49;100.00
8051;BME280;4068;42.158;24.732;2022-11-06T02:35:59;99325.69;;;8.31;100.00
8051;BME280;4068;42.158;24.732;2022-11-06T02:38:33;99342.78;;;8.38;100.00
8051;BME280;4068;42.158;24.732;2022-11-06T02:41:05;99349.72;;;8.39;100.00
8051;BME280;4068;42.158;24.732;2022-11-06T02:43:40;99349.00;;;8.37;100.00
8051;BME280;4068;42.158;24.732;2022-11-06T02:46:11;99353.59;;;8.35;100.00
8051;BME280;4068;42.158;24.732;2022-11-06T02:48:42;99319.63;;;8.18;100.00
8051;BME280;4068;42.158;24.732;2022-11-06T02:51:12;99358.47;;;8.28;100.00
8051;BME280;4068;42.158;24.732;2022-11-06T02:53:39;99347.28;;;8.25;100.00
8051;BME280;4068;42.158;24.732;2022-11-06T02:56:17;99319.25;;;8.11;100.00
8051;BME280;4068;42.158;24.732;2022-11-06T02:59:14;99354.78;;;8.31;100.00
8051;BME280;4068;42.158;24.732;2022-11-06T03:01:49;99358.75;;;8.37;100.00
8051;BME280;4068;42.158;24.732;2022-11-06T03:04:28;99364.94;;;8.49;100.00
8051;BME280;4068;42.158;24.732;2022-11-06T03:07:06;99358.28;;;8.43;100.00
8051;BME280;4068;42.158;24.732;2022-11-06T03:09:34;99354.25;;;8.50;100.00
8051;BME280;4068;42.158;24.732;2022-11-06T03:12:05;99356.56;;;8.55;100.00
8051;BME280;4068;42.158;24.732;2022-11-06T03:20:25;99357.66;;;8.63;100.00
8051;BME280;4068;42.158;24.732;2022-11-06T03:23:07;99360.81;;;8.69;100.00
8051;BME280;4068;42.158;24.732;2022-11-06T03:28:34;99349.38;;;8.57;100.00
8051;BME280;4068;42.158;24.732;2022-11-06T03:31:06;99345.66;;;8.59;100.00
8051;BME280;4068;42.158;24.732;2022-11-06T03:33:37;99362.38;;;8.71;100.00
8051;BME280;4068;42.158;24.732;2022-11-06T03:36:12;99361.91;;;8.77;100.00
8051;BME280;4068;42.158;24.732;2022-11-06T03:38:53;99360.13;;;8.78;100.00
8051;BME280;4068;42.158;24.732;2022-11-06T03:41:48;99355.66;;;8.78;100.00
8051;BME280;4068;42.158;24.732;2022-11-06T03:44:23;99361.56;;;8.93;100.00
8051;BME280;4068;42.158;24.732;2022-11-06T03:47:00;99344.59;;;8.73;100.00
8051;BME280;4068;42.158;24.732;2022-11-06T03:49:32;99346.03;;;8.77;100.00
8051;BME280;4068;42.158;24.732;2022-11-06T03:52:04;99358.44;;;8.77;100.00
8051;BME280;4068;42.158;24.732;2022-11-06T03:54:47;99343.41;;;8.89;100.00
8051;BME280;4068;42.158;24.732;2022-11-06T03:57:22;99348.34;;;8.93;100.00
8051;BME280;4068;42.158;24.732;2022-11-06T03:59:54;99342.94;;;8.95;100.00
8051;BME280;4068;42.158;24.732;2022-11-06T04:02:23;99354.00;;;8.89;100.00
8051;BME280;4068;42.158;24.732;2022-11-06T04:04:53;99330.91;;;8.68;100.00
8051;BME280;4068;42.158;24.732;2022-11-06T04:07:48;99355.34;;;8.94;100.00
8051;BME280;4068;42.158;24.732;2022-11-06T04:10:38;99366.28;;;9.01;100.00
8051;BME280;4068;42.158;24.732;2022-11-06T04:13:26;99371.94;;;8.96;100.00
8051;BME280;4068;42.158;24.732;2022-11-06T04:16:12;99346.53;;;8.83;100.00
8051;BME280;4068;42.158;24.732;2022-11-06T04:18:38;99364.56;;;8.89;100.00
8051;BME280;4068;42.158;24.732;2022-11-06T04:21:12;99366.50;;;8.87;100.00
8051;BME280;4068;42.158;24.732;2022-11-06T04:24:08;99368.78;;;8.91;100.00
8051;BME280;4068;42.158;24.732;2022-11-06T04:29:42;99378.56;;;9.02;100.00
8051;BME280;4068;42.158;24.732;2022-11-06T04:32:28;99383.81;;;8.79;100.00
8051;BME280;4068;42.158;24.732;2022-11-06T04:37:51;99364.41;;;8.68;100.00
8051;BME280;4068;42.158;24.732;2022-11-06T04:41:01;99358.88;;;8.59;100.00
8051;BME280;4068;42.158;24.732;2022-11-06T04:43:39;99366.44;;;8.64;100.00
8051;BME280;4068;42.158;24.732;2022-11-06T04:46:07;99360.13;;;8.78;100.00
8051;BME280;4068;42.158;24.732;2022-11-06T04:48:36;99367.19;;;8.77;100.00
8051;BME280;4068;42.158;24.732;2022-11-06T04:51:05;99376.78;;;8.67;100.00
8051;BME280;4068;42.158;24.732;2022-11-06T04:53:32;99375.59;;;8.71;100.00
8051;BME280;4068;42.158;24.732;2022-11-06T04:56:06;99360.22;;;8.65;100.00
8051;BME280;4068;42.158;24.732;2022-11-06T04:58:33;99374.41;;;8.75;100.00
8051;BME280;4068;42.158;24.732;2022-11-06T05:00:58;99371.09;;;8.60;100.00
8051;BME280;4068;42.158;24.732;2022-11-06T05:03:24;99397.00;;;8.68;100.00
8051;BME280;4068;42.158;24.732;2022-11-06T05:05:49;99372.41;;;8.55;100.00
8051;BME280;4068;42.158;24.732;2022-11-06T05:08:16;99368.59;;;8.59;100.00
8051;BME280;4068;42.158;24.732;2022-11-06T05:10:43;99370.56;;;8.68;100.00
8051;BME280;4068;42.158;24.732;2022-11-06T05:13:09;99370.19;;;8.73;100.00
8051;BME280;4068;42.158;24.732;2022-11-06T05:15:34;99364.41;;;8.68;100.00
8051;BME280;4068;42.158;24.732;2022-11-06T05:18:00;99383.06;;;8.77;100.00
8051;BME280;4068;42.158;24.732;2022-11-06T05:20:26;99354.13;;;8.52;100.00
8051;BME280;4068;42.158;24.732;2022-11-06T05:22:51;99370.19;;;8.73;100.00
8051;BME280;4068;42.158;24.732;2022-11-06T05:25:30;99380.78;;;8.73;100.00
8051;BME280;4068;42.158;24.732;2022-11-06T05:27:57;99402.19;;;8.81;100.00
8051;BME280;4068;42.158;24.732;2022-11-06T05:30:23;99406.66;;;8.92;100.00
8051;BME280;4068;42.158;24.732;2022-11-06T05:32:49;99408.50;;;9.03;100.00
8051;BME280;4068;42.158;24.732;2022-11-06T05:35:16;99393.97;;;9.08;100.00
8051;BME280;4068;42.158;24.732;2022-11-06T05:37:41;99406.34;;;9.19;100.00
8051;BME280;4068;42.158;24.732;2022-11-06T05:40:07;99410.09;;;9.28;100.00
8051;BME280;4068;42.158;24.732;2022-11-06T05:42:35;99406.25;;;9.43;100.00
8051;BME280;4068;42.158;24.732;2022-11-06T05:45:00;99405.91;;;9.59;100.00
8051;BME280;4068;42.158;24.732;2022-11-06T05:47:26;99415.28;;;9.75;100.00
8051;BME280;4068;42.158;24.732;2022-11-06T05:49:51;99422.63;;;9.82;100.00
8051;BME280;4068;42.158;24.732;2022-11-06T05:52:17;99391.09;;;9.68;100.00
8051;BME280;4068;42.158;24.732;2022-11-06T05:54:42;99434.19;;;9.81;100.00
8051;BME280;4068;42.158;24.732;2022-11-06T05:57:07;99435.75;;;9.84;100.00
8051;BME280;4068;42.158;24.732;2022-11-06T05:59:33;99438.25;;;9.97;100.00
8051;BME280;4068;42.158;24.732;2022-11-06T06:01:58;99441.84;;;10.07;100.00
8051;BME280;4068;42.158;24.732;2022-11-06T06:04:24;99439.81;;;10.11;100.00
8051;BME280;4068;42.158;24.732;2022-11-06T06:06:50;99412.69;;;10.18;100.00
8051;BME280;4068;42.158;24.732;2022-11-06T06:09:16;99422.56;;;10.28;100.00
8051;BME280;4068;42.158;24.732;2022-11-06T06:11:41;99457.19;;;10.59;100.00
8051;BME280;4068;42.158;24.732;2022-11-06T06:14:07;99474.75;;;10.71;100.00
8051;BME280;4068;42.158;24.732;2022-11-06T06:16:32;99476.06;;;10.77;100.00
8051;BME280;4068;42.158;24.732;2022-11-06T06:18:58;99444.91;;;10.58;100.00
8051;BME280;4068;42.158;24.732;2022-11-06T06:21:23;99484.66;;;10.90;100.00
8051;BME280;4068;42.158;24.732;2022-11-06T06:23:49;99477.31;;;10.94;100.00
8051;BME280;4068;42.158;24.732;2022-11-06T06:26:14;99485.63;;;11.00;100.00
8051;BME280;4068;42.158;24.732;2022-11-06T06:28:39;99485.69;;;11.10;100.00
8051;BME280;4068;42.158;24.732;2022-11-06T06:31:06;99492.22;;;11.27;100.00
8051;BME280;4068;42.158;24.732;2022-11-06T06:33:32;99490.34;;;11.39;100.00
8051;BME280;4068;42.158;24.732;2022-11-06T06:36:02;99498.94;;;11.52;100.00
8051;BME280;4068;42.158;24.732;2022-11-06T06:38:28;99473.19;;;11.43;100.00
8051;BME280;4068;42.158;24.732;2022-11-06T06:40:54;99468.03;;;11.51;100.00
8051;BME280;4068;42.158;24.732;2022-11-06T06:43:19;99473.81;;;11.56;100.00
8051;BME280;4068;42.158;24.732;2022-11-06T06:45:44;99503.19;;;11.86;100.00
8051;BME280;4068;42.158;24.732;2022-11-06T06:48:10;99514.50;;;12.09;100.00
8051;BME280;4068;42.158;24.732;2022-11-06T06:50:35;99499.69;;;12.16;100.00
8051;BME280;4068;42.158;24.732;2022-11-06T06:53:01;99525.22;;;12.38;100.00
8051;BME280;4068;42.158;24.732;2022-11-06T06:55:27;99518.34;;;12.26;100.00
8051;BME280;4068;42.158;24.732;2022-11-06T06:57:57;99515.31;;;12.40;100.00
8051;BME280;4068;42.158;24.732;2022-11-06T07:00:24;99506.63;;;12.48;100.00
8051;BME280;4068;42.158;24.732;2022-11-06T07:02:50;99533.44;;;12.66;100.00
8051;BME280;4068;42.158;24.732;2022-11-06T07:05:16;99534.00;;;12.89;100.00
8051;BME280;4068;42.158;24.732;2022-11-06T07:07:41;99533.59;;;13.04;100.00
8051;BME280;4068;42.158;24.732;2022-11-06T07:10:07;99533.34;;;13.07;100.00
8051;BME280;4068;42.158;24.732;2022-11-06T07:12:32;99558.28;;;13.25;100.00
8051;BME280;4068;42.158;24.732;2022-11-06T07:14:58;99548.31;;;13.27;100.00
8051;BME280;4068;42.158;24.732;2022-11-06T07:17:23;99544.81;;;13.27;100.00
8051;BME280;4068;42.158;24.732;2022-11-06T07:19:48;99548.59;;;13.05;100.00
8051;BME280;4068;42.158;24.732;2022-11-06T07:22:15;99537.81;;;13.26;100.00
8051;BME280;4068;42.158;24.732;2022-11-06T07:24:40;99556.34;;;13.47;100.00
8051;BME280;4068;42.158;24.732;2022-11-06T07:27:05;99542.59;;;13.52;100.00
8051;BME280;4068;42.158;24.732;2022-11-06T07:29:31;99539.47;;;13.56;100.00
8051;BME280;4068;42.158;24.732;2022-11-06T07:31:56;99549.00;;;13.78;100.00
8051;BME280;4068;42.158;24.732;2022-11-06T07:34:22;99548.81;;;13.90;100.00
8051;BME280;4068;42.158;24.732;2022-11-06T07:36:47;99537.84;;;14.03;100.00
8051;BME280;4068;42.158;24.732;2022-11-06T07:39:12;99558.09;;;14.23;100.00
8051;BME280;4068;42.158;24.732;2022-11-06T07:41:38;99567.94;;;14.50;100.00
8051;BME280;4068;42.158;24.732;2022-11-06T07:44:03;99522.69;;;14.31;100.00
8051;BME280;4068;42.158;24.732;2022-11-06T07:46:29;99548.69;;;14.57;100.00
8051;BME280;4068;42.158;24.732;2022-11-06T07:48:54;99547.81;;;14.56;100.00
8051;BME280;4068;42.158;24.732;2022-11-06T07:51:20;99558.41;;;14.76;100.00
8051;BME280;4068;42.158;24.732;2022-11-06T07:53:45;99547.63;;;14.95;100.00
8051;BME280;4068;42.158;24.732;2022-11-06T07:56:11;99553.03;;;15.04;100.00
8051;BME280;4068;42.158;24.732;2022-11-06T07:58:36;99570.41;;;14.90;100.00
8051;BME280;4068;42.158;24.732;2022-11-06T08:01:03;99566.31;;;14.95;100.00
8051;BME280;4068;42.158;24.732;2022-11-06T08:03:28;99550.59;;;14.92;100.00
8051;BME280;4068;42.158;24.732;2022-11-06T08:05:55;99574.31;;;15.13;100.00
8051;BME280;4068;42.158;24.732;2022-11-06T08:08:20;99584.19;;;15.31;100.00
8051;BME280;4068;42.158;24.732;2022-11-06T08:10:46;99585.75;;;15.60;100.00
8051;BME280;4068;42.158;24.732;2022-11-06T08:13:13;99577.88;;;15.76;99.80
8051;BME280;4068;42.158;24.732;2022-11-06T08:15:40;99590.16;;;15.87;100.00
8051;BME280;4068;42.158;24.732;2022-11-06T08:18:06;99587.59;;;16.03;99.64
8051;BME280;4068;42.158;24.732;2022-11-06T08:20:36;99591.34;;;15.93;99.26
8051;BME280;4068;42.158;24.732;2022-11-06T08:23:03;99595.50;;;15.69;100.00
8051;BME280;4068;42.158;24.732;2022-11-06T08:25:30;99598.03;;;15.70;98.59
8051;BME280;4068;42.158;24.732;2022-11-06T08:27:57;99600.00;;;15.68;100.00
8051;BME280;4068;42.158;24.732;2022-11-06T08:30:23;99581.38;;;15.59;100.00
8051;BME280;4068;42.158;24.732;2022-11-06T08:32:49;99608.50;;;15.64;100.00
8051;BME280;4068;42.158;24.732;2022-11-06T08:35:15;99614.91;;;15.71;99.92
8051;BME280;4068;42.158;24.732;2022-11-06T08:37:40;99623.59;;;15.73;99.07
8051;BME280;4068;42.158;24.732;2022-11-06T08:40:06;99624.38;;;15.65;99.25
8051;BME280;4068;42.158;24.732;2022-11-06T08:42:32;99609.66;;;15.43;98.88
8051;BME280;4068;42.158;24.732;2022-11-06T08:44:57;99596.75;;;15.39;99.68
8051;BME280;4068;42.158;24.732;2022-11-06T08:47:23;99631.13;;;15.33;100.00
8051;BME280;4068;42.158;24.732;2022-11-06T08:49:48;99625.75;;;15.15;100.00
8051;BME280;4068;42.158;24.732;2022-11-06T08:52:13;99628.06;;;15.28;100.00
8051;BME280;4068;42.158;24.732;2022-11-06T08:54:39;99634.19;;;15.21;100.00
8051;BME280;4068;42.158;24.732;2022-11-06T08:57:04;99601.97;;;15.22;100.00
8051;BME280;4068;42.158;24.732;2022-11-06T08:59:30;99605.38;;;15.14;100.00
8051;BME280;4068;42.158;24.732;2022-11-06T09:01:56;99613.38;;;14.96;100.00
8051;BME280;4068;42.158;24.732;2022-11-06T09:04:22;99612.78;;;14.75;100.00
8051;BME280;4068;42.158;24.732;2022-11-06T09:06:47;99572.75;;;14.47;100.00
8051;BME280;4068;42.158;24.732;2022-11-06T09:09:13;99606.00;;;14.53;100.00
8051;BME280;4068;42.158;24.732;2022-11-06T09:11:38;99609.19;;;14.56;100.00
8051;BME280;4068;42.158;24.732;2022-11-06T09:14:04;99573.47;;;14.39;100.00
8051;BME280;4068;42.158;24.732;2022-11-06T09:16:29;99605.69;;;14.65;100.00
8051;BME280;4068;42.158;24.732;2022-11-06T09:18:55;99572.75;;;14.47;100.00
8051;BME280;4068;42.158;24.732;2022-11-06T09:21:21;99597.78;;;14.74;100.00
8051;BME280;4068;42.158;24.732;2022-11-06T09:23:47;99603.66;;;14.77;100.00
8051;BME280;4068;42.158;24.732;2022-11-06T09:26:13;99599.09;;;14.88;100.00
8051;BME280;4068;42.158;24.732;2022-11-06T09:28:39;99611.84;;;15.12;100.00
8051;BME280;4068;42.158;24.732;2022-11-06T09:31:04;99559.72;;;15.08;100.00
8051;BME280;4068;42.158;24.732;2022-11-06T09:33:30;99589.13;;;15.44;100.00
8051;BME280;4068;42.158;24.732;2022-11-06T09:35:55;99556.31;;;15.33;100.00
8051;BME280;4068;42.158;24.732;2022-11-06T09:38:20;99555.47;;;15.33;100.00
8051;BME280;4068;42.158;24.732;2022-11-06T09:40:54;99585.84;;;15.14;100.00
8051;BME280;4068;42.158;24.732;2022-11-06T09:43:54;99588.97;;;15.09;100.00
8051;BME280;4068;42.158;24.732;2022-11-06T09:46:30;99566.22;;;15.23;100.00
8051;BME280;4068;42.158;24.732;2022-11-06T09:56:44;99584.09;;;15.23;100.00
8051;BME280;4068;42.158;24.732;2022-11-06T09:59:15;99586.69;;;14.96;100.00
8051;BME280;4068;42.158;24.732;2022-11-06T10:04:22;99598.72;;;15.00;100.00
8051;BME280;4068;42.158;24.732;2022-11-06T10:06:51;99572.06;;;14.73;100.00
8051;BME280;4068;42.158;24.732;2022-11-06T10:09:17;99600.88;;;14.69;100.00
8051;BME280;4068;42.158;24.732;2022-11-06T10:19:37;99591.38;;;14.84;100.00
8051;BME280;4068;42.158;24.732;2022-11-06T10:24:45;99592.53;;;15.00;100.00
8051;BME280;4068;42.158;24.732;2022-11-06T10:27:17;99580.75;;;15.21;100.00
8051;BME280;4068;42.158;24.732;2022-11-06T10:40:25;99586.25;;;15.63;100.00
8051;BME280;4068;42.158;24.732;2022-11-06T10:43:20;99577.72;;;15.78;100.00
8051;BME280;4068;42.158;24.732;2022-11-06T10:45:52;99571.41;;;15.61;100.00
8051;BME280;4068;42.158;24.732;2022-11-06T10:54:21;99548.47;;;15.58;100.00
8051;BME280;4068;42.158;24.732;2022-11-06T10:58:51;99574.44;;;15.84;100.00
8051;BME280;4068;42.158;24.732;2022-11-06T11:01:16;99579.69;;;15.94;100.00
8051;BME280;4068;42.158;24.732;2022-11-06T11:03:43;99562.59;;;15.86;100.00
8051;BME280;4068;42.158;24.732;2022-11-06T11:06:11;99566.63;;;15.91;100.00
8051;BME280;4068;42.158;24.732;2022-11-06T11:16:24;99572.97;;;16.59;100.00
8051;BME280;4068;42.158;24.732;2022-11-06T11:18:50;99577.56;;;16.74;100.00
8051;BME280;4068;42.158;24.732;2022-11-06T11:21:25;99566.94;;;17.07;100.00
8051;BME280;4068;42.158;24.732;2022-11-06T11:26:30;99559.34;;;16.86;100.00
8051;BME280;4068;42.158;24.732;2022-11-06T11:28:58;99558.91;;;17.24;100.00
8051;BME280;4068;42.158;24.732;2022-11-06T11:31:30;99556.06;;;17.34;100.00
8051;BME280;4068;42.158;24.732;2022-11-06T11:33:59;99558.59;;;17.52;100.00
8051;BME280;4068;42.158;24.732;2022-11-06T11:36:25;99538.78;;;17.69;100.00
8051;BME280;4068;42.158;24.732;2022-11-06T11:38:51;99549.66;;;18.09;100.00
8051;BME280;4068;42.158;24.732;2022-11-06T11:43:57;99548.78;;;18.17;98.81
8051;BME280;4068;42.158;24.732;2022-11-06T11:46:28;99538.53;;;18.20;97.04
8051;BME280;4068;42.158;24.732;2022-11-06T11:48:55;99571.50;;;18.45;96.44
8051;BME280;4068;42.158;24.732;2022-11-06T11:51:36;99559.22;;;18.51;97.08
8051;BME280;4068;42.158;24.732;2022-11-06T11:59:20;99550.63;;;18.64;95.38
8051;BME280;4068;42.158;24.732;2022-11-06T12:01:46;99545.72;;;18.68;96.42
8051;BME280;4068;42.158;24.732;2022-11-06T12:04:26;99550.44;;;18.66;96.25
8051;BME280;4068;42.158;24.732;2022-11-06T12:07:01;99558.34;;;18.59;96.10
8051;BME280;4068;42.158;24.732;2022-11-06T12:09:30;99566.16;;;18.45;96.21
8051;BME280;4068;42.158;24.732;2022-11-06T12:11:58;99541.59;;;18.09;97.99
8051;BME280;4068;42.158;24.732;2022-11-06T12:14:30;99551.34;;;18.10;100.00
8051;BME280;4068;42.158;24.732;2022-11-06T12:17:07;99565.63;;;17.77;100.00
8051;BME280;4068;42.158;24.732;2022-11-06T12:19:35;99554.56;;;17.56;100.00
8051;BME280;4068;42.158;24.732;2022-11-06T12:22:15;99562.44;;;17.49;100.00
8051;BME280;4068;42.158;24.732;2022-11-06T12:24:53;99535.78;;;17.06;100.00
8051;BME280;4068;42.158;24.732;2022-11-06T12:27:23;99559.25;;;17.21;100.00
8051;BME280;4068;42.158;24.732;2022-11-06T12:30:13;99545.66;;;16.98;100.00
8051;BME280;4068;42.158;24.732;2022-11-06T12:33:30;99544.06;;;16.79;100.00
8051;BME280;4068;42.158;24.732;2022-11-06T12:38:20;99542.84;;;16.56;100.00
8051;BME280;4068;42.158;24.732;2022-11-06T12:43:43;99540.91;;;16.32;100.00
8051;BME280;4068;42.158;24.732;2022-11-06T12:59:43;99532.16;;;15.87;100.00
8051;BME280;4068;42.158;24.732;2022-11-06T13:05:06;99526.59;;;16.07;100.00
8051;BME280;4068;42.158;24.732;2022-11-06T13:10:25;99536.50;;;16.15;100.00
8051;BME280;4068;42.158;24.732;2022-11-06T13:15:35;99521.66;;;15.94;100.00
8051;BME280;4068;42.158;24.732;2022-11-06T13:18:14;99537.97;;;16.09;100.00
8051;BME280;4068;42.158;24.732;2022-11-06T13:21:01;99536.28;;;16.08;100.00
8051;BME280;4068;42.158;24.732;2022-11-06T13:23:34;99530.38;;;15.96;100.00
8051;BME280;4068;42.158;24.732;2022-11-06T13:28:47;99536.50;;;15.88;100.00
8051;BME280;4068;42.158;24.732;2022-11-06T13:31:17;99539.06;;;15.72;100.00
8051;BME280;4068;42.158;24.732;2022-11-06T13:33:51;99533.16;;;15.86;100.00
8051;BME280;4068;42.158;24.732;2022-11-06T13:36:21;99518.19;;;15.76;100.00
8051;BME280;4068;42.158;24.732;2022-11-06T13:39:10;99531.47;;;15.85;100.00
8051;BME280;4068;42.158;24.732;2022-11-06T13:41:38;99529.97;;;15.83;100.00
8051;BME280;4068;42.158;24.732;2022-11-06T13:44:05;99533.94;;;15.79;100.00
8051;BME280;4068;42.158;24.732;2022-11-06T13:46:38;99528.16;;;15.65;100.00
8051;BME280;4068;42.158;24.732;2022-11-06T13:49:20;99532.50;;;15.66;100.00
8051;BME280;4068;42.158;24.732;2022-11-06T13:57:34;99530.91;;;16.00;100.00
8051;BME280;4068;42.158;24.732;2022-11-06T14:00:22;99534.00;;;16.13;100.00
8051;BME280;4068;42.158;24.732;2022-11-06T14:06:04;99533.22;;;16.29;100.00
8051;BME280;4068;42.158;24.732;2022-11-06T14:08:40;99530.47;;;16.13;100.00
8051;BME280;4068;42.158;24.732;2022-11-06T14:11:28;99535.97;;;16.11;100.00
8051;BME280;4068;42.158;24.732;2022-11-06T14:14:00;99537.81;;;16.11;100.00
8051;BME280;4068;42.158;24.732;2022-11-06T14:16:41;99528.78;;;16.12;100.00
8051;BME280;4068;42.158;24.732;2022-11-06T14:21:49;99532.38;;;15.94;100.00
8051;BME280;4068;42.158;24.732;2022-11-06T14:24:30;99525.00;;;15.88;100.00
8051;BME280;4068;42.158;24.732;2022-11-06T14:26:58;99541.84;;;15.88;100.00
8051;BME280;4068;42.158;24.732;2022-11-06T14:31:59;99536.09;;;15.57;100.00
8051;BME280;4068;42.158;24.732;2022-11-06T14:34:30;99524.91;;;15.53;100.00
8051;BME280;4068;42.158;24.732;2022-11-06T14:36:56;99520.25;;;15.38;100.00
8051;BME280;4068;42.158;24.732;2022-11-06T14:40:01;99524.34;;;15.24;100.00
8051;BME280;4068;42.158;24.732;2022-11-06T14:42:37;99515.94;;;15.18;100.00
8051;BME280;4068;42.158;24.732;2022-11-06T14:47:39;99520.28;;;15.01;100.00
8051;BME280;4068;42.158;24.732;2022-11-06T14:50:22;99521.38;;;14.91;100.00
8051;BME280;4068;42.158;24.732;2022-11-06T14:52:55;99513.50;;;14.89;100.00
8051;BME280;4068;42.158;24.732;2022-11-06T14:55:29;99521.59;;;14.79;100.00
8051;BME280;4068;42.158;24.732;2022-11-06T15:00:53;99521.28;;;14.55;100.00
8051;BME280;4068;42.158;24.732;2022-11-06T15:03:42;99493.56;;;14.20;100.00
8051;BME280;4068;42.158;24.732;2022-11-06T15:16:28;99530.81;;;14.02;100.00
8051;BME280;4068;42.158;24.732;2022-11-06T15:19:01;99533.06;;;13.96;100.00
8051;BME280;4068;42.158;24.732;2022-11-06T15:21:36;99513.31;;;13.89;100.00
8051;BME280;4068;42.158;24.732;2022-11-06T15:24:26;99529.84;;;14.03;100.00
8051;BME280;4068;42.158;24.732;2022-11-06T15:26:59;99504.06;;;13.84;100.00
8051;BME280;4068;42.158;24.732;2022-11-06T15:29:31;99530.97;;;14.00;100.00
8051;BME280;4068;42.158;24.732;2022-11-06T15:32:11;99541.63;;;14.00;100.00
8051;BME280;4068;42.158;24.732;2022-11-06T15:34:40;99533.06;;;13.96;100.00
8051;BME280;4068;42.158;24.732;2022-11-06T15:37:20;99543.00;;;14.04;100.00
8051;BME280;4068;42.158;24.732;2022-11-06T15:42:16;99556.09;;;13.97;100.00
8051;BME280;4068;42.158;24.732;2022-11-06T15:44:44;99546.16;;;13.90;100.00
8051;BME280;4068;42.158;24.732;2022-11-06T15:47:25;99567.22;;;13.83;100.00